createdAt,value
2023-02-24T00:02:06.445Z,5.80
2023-02-24T00:04:38.358Z,5.70
2023-02-24T00:07:08.331Z,5.70
2023-02-24T00:09:36.620Z,5.60
2023-02-24T00:12:08.766Z,5.70
2023-02-24T00:14:38.265Z,5.60
2023-02-24T00:17:10.989Z,5.60
2023-02-24T00:19:43.942Z,5.60
2023-02-24T00:22:13.087Z,5.60
2023-02-24T00:24:40.072Z,5.60
2023-02-24T00:27:07.893Z,5.80
2023-02-24T00:29:41.887Z,5.90
2023-02-24T00:32:12.330Z,5.90
2023-02-24T00:34:39.943Z,5.90
2023-02-24T00:37:07.182Z,5.90
2023-02-24T00:39:35.351Z,6.00
2023-02-24T00:42:04.861Z,6.00
2023-02-24T00:44:40.994Z,6.10
2023-02-24T00:47:10.325Z,6.20
2023-02-24T00:49:42.713Z,6.20
2023-02-24T00:52:15.984Z,6.20
2023-02-24T00:54:45.780Z,6.20
2023-02-24T00:57:14.221Z,6.20
2023-02-24T00:59:41.118Z,6.30
2023-02-24T01:02:08.127Z,6.30
2023-02-24T01:04:37.479Z,6.30
2023-02-24T01:07:10.561Z,6.40
2023-02-24T01:09:39.571Z,6.40
2023-02-24T01:12:38.422Z,6.40
2023-02-24T01:15:08.932Z,6.40
2023-02-24T01:17:37.173Z,6.40
2023-02-24T01:20:15.029Z,6.50
2023-02-24T01:22:42.768Z,6.50
2023-02-24T01:25:11.157Z,6.50
2023-02-24T01:27:40.015Z,6.50
2023-02-24T01:30:13.589Z,6.60
2023-02-24T01:32:40.755Z,6.70
2023-02-24T01:35:08.366Z,6.50
2023-02-24T01:37:35.460Z,6.50
2023-02-24T01:40:10.382Z,6.60
2023-02-24T01:42:38.748Z,6.50
2023-02-24T01:45:13.167Z,6.60
2023-02-24T01:47:40.965Z,6.60
2023-02-24T01:50:10.076Z,6.60
2023-02-24T01:52:37.689Z,6.60
2023-02-24T01:55:29.355Z,6.60
2023-02-24T01:57:58.319Z,6.60
2023-02-24T02:00:38.274Z,6.60
2023-02-24T02:03:13.532Z,6.60
2023-02-24T02:05:41.648Z,6.60
2023-02-24T02:08:10.324Z,6.60
2023-02-24T02:10:40.799Z,6.60
2023-02-24T02:13:07.709Z,6.70
2023-02-24T02:15:45.610Z,6.60
2023-02-24T02:18:32.037Z,6.60
2023-02-24T02:21:15.238Z,6.50
2023-02-24T02:23:47.958Z,6.60
2023-02-24T02:26:27.446Z,6.60
2023-02-24T02:29:22.012Z,6.60
2023-02-24T02:31:58.102Z,6.70
2023-02-24T02:34:38.756Z,6.60
2023-02-24T02:37:12.300Z,6.70
2023-02-24T02:39:47.880Z,6.70
2023-02-24T02:42:30.135Z,6.70
2023-02-24T02:45:07.686Z,6.60
2023-02-24T02:47:41.581Z,6.80
2023-02-24T02:50:35.827Z,6.80
2023-02-24T02:53:05.147Z,6.70
2023-02-24T02:55:43.982Z,6.70
2023-02-24T02:58:26.199Z,6.70
2023-02-24T03:01:04.581Z,6.80
2023-02-24T03:03:34.952Z,6.80
2023-02-24T03:06:08.286Z,6.80
2023-02-24T03:08:39.834Z,6.80
2023-02-24T03:11:12.038Z,6.80
2023-02-24T03:13:42.241Z,6.80
2023-02-24T03:16:12.177Z,6.80
2023-02-24T03:18:50.928Z,6.80
2023-02-24T03:21:33.087Z,6.80
2023-02-24T03:24:01.892Z,6.80
2023-02-24T03:26:52.201Z,6.80
2023-02-24T03:29:41.946Z,6.80
2023-02-24T03:32:20.379Z,6.80
2023-02-24T03:34:56.747Z,6.80
2023-02-24T03:37:26.544Z,6.80
2023-02-24T03:39:57.659Z,6.80
2023-02-24T03:42:31.254Z,6.90
2023-02-24T03:44:58.431Z,6.90
2023-02-24T03:47:26.679Z,6.90
2023-02-24T03:49:53.873Z,6.90
2023-02-24T03:52:47.389Z,6.90
2023-02-24T03:55:43.906Z,7.00
2023-02-24T03:58:38.467Z,6.90
2023-02-24T04:01:20.520Z,6.90
2023-02-24T04:04:00.571Z,7.00
2023-02-24T04:06:49.608Z,6.90
2023-02-24T04:09:44.554Z,6.80
2023-02-24T04:12:27.069Z,6.80
2023-02-24T04:15:04.675Z,6.80
2023-02-24T04:17:39.713Z,6.80
2023-02-24T04:20:16.634Z,6.80
2023-02-24T04:22:54.704Z,6.80
2023-02-24T04:25:25.874Z,6.70
2023-02-24T04:28:01.578Z,6.60
2023-02-24T04:30:33.236Z,6.50
2023-02-24T04:33:01.648Z,6.40
2023-02-24T04:35:28.695Z,6.20
2023-02-24T04:37:56.855Z,6.20
2023-02-24T04:40:24.689Z,6.10
2023-02-24T04:42:53.558Z,5.90
2023-02-24T04:45:23.449Z,5.90
2023-02-24T04:47:56.029Z,5.80
2023-02-24T04:50:25.156Z,5.70
2023-02-24T04:53:01.288Z,5.70
2023-02-24T04:55:32.954Z,5.70
2023-02-24T04:58:01.264Z,5.60
2023-02-24T05:00:35.284Z,5.60
2023-02-24T05:03:04.858Z,5.50
2023-02-24T05:05:35.470Z,5.50
2023-02-24T05:08:08.122Z,5.50
2023-02-24T05:10:46.832Z,5.50
2023-02-24T05:13:21.124Z,5.50
2023-02-24T05:15:48.549Z,5.40
2023-02-24T05:18:20.230Z,5.50
2023-02-24T05:21:14.558Z,5.50
2023-02-24T05:23:48.939Z,5.50
2023-02-24T05:26:18.352Z,5.50
2023-02-24T05:28:49.184Z,5.50
2023-02-24T05:31:24.319Z,5.40
2023-02-24T05:33:54.574Z,5.40
2023-02-24T05:36:22.209Z,5.40
2023-02-24T05:38:56.540Z,5.40
2023-02-24T05:41:34.609Z,5.40
2023-02-24T05:44:12.887Z,5.40
2023-02-24T05:46:42.097Z,5.40
2023-02-24T05:49:14.875Z,5.40
2023-02-24T05:51:43.621Z,5.40
2023-02-24T05:54:14.717Z,5.40
2023-02-24T05:56:43.756Z,5.40
2023-02-24T05:59:18.641Z,5.50
2023-02-24T06:01:49.763Z,5.40
2023-02-24T06:04:49.266Z,5.50
2023-02-24T06:07:20.890Z,5.40
2023-02-24T06:09:53.948Z,5.40
2023-02-24T06:12:24.045Z,5.40
2023-02-24T06:14:52.883Z,5.40
2023-02-24T06:17:20.787Z,5.40
2023-02-24T06:19:51.152Z,5.30
2023-02-24T06:22:20.716Z,5.40
2023-02-24T06:24:49.443Z,5.30
2023-02-24T06:27:21.525Z,5.40
2023-02-24T06:29:53.750Z,5.50
2023-02-24T06:32:24.322Z,5.70
2023-02-24T06:34:52.097Z,5.70
2023-02-24T06:37:19.650Z,5.80
2023-02-24T06:39:46.382Z,5.90
2023-02-24T06:42:13.860Z,5.80
2023-02-24T06:44:41.533Z,5.70
2023-02-24T06:47:13.052Z,5.70
2023-02-24T06:49:40.149Z,5.60
2023-02-24T06:52:06.981Z,5.60
2023-02-24T06:54:35.770Z,5.60
2023-02-24T06:57:03.913Z,5.60
2023-02-24T06:59:30.913Z,5.50
2023-02-24T07:01:59.470Z,5.50
2023-02-24T07:04:28.962Z,5.50
2023-02-24T07:07:02.724Z,5.50
2023-02-24T07:09:30.584Z,5.50
2023-02-24T07:11:58.740Z,5.50
2023-02-24T07:14:29.143Z,5.50
2023-02-24T07:16:58.009Z,5.50
2023-02-24T07:19:29.043Z,5.50
2023-02-24T07:22:02.116Z,5.60
2023-02-24T07:24:39.152Z,5.60
2023-02-24T07:27:12.966Z,5.60
2023-02-24T07:29:39.733Z,5.70
2023-02-24T07:32:08.623Z,5.80
2023-02-24T07:34:39.606Z,5.80
2023-02-24T07:37:07.803Z,5.90
2023-02-24T07:39:36.935Z,5.90
2023-02-24T07:42:04.735Z,5.90
2023-02-24T07:44:44.434Z,6.00
2023-02-24T07:47:11.313Z,6.00
2023-02-24T07:49:39.430Z,6.20
2023-02-24T07:52:08.060Z,6.10
2023-02-24T07:54:35.457Z,6.20
2023-02-24T07:57:02.480Z,6.20
2023-02-24T07:59:32.347Z,6.20
2023-02-24T08:02:00.445Z,6.20
2023-02-24T08:04:29.882Z,6.30
2023-02-24T08:06:58.839Z,6.40
2023-02-24T08:09:48.186Z,6.50
2023-02-24T08:12:21.204Z,6.50
2023-02-24T08:14:51.465Z,6.50
2023-02-24T08:17:20.395Z,6.60
2023-02-24T08:19:49.055Z,6.60
2023-02-24T08:22:20.343Z,6.70
2023-02-24T08:25:06.161Z,6.70
2023-02-24T08:27:39.024Z,6.70
2023-02-24T08:30:08.076Z,6.70
2023-02-24T08:32:37.017Z,6.80
2023-02-24T08:35:15.844Z,6.80
2023-02-24T08:37:53.980Z,6.80
2023-02-24T08:40:32.332Z,6.90
2023-02-24T08:43:00.661Z,6.90
2023-02-24T08:45:33.502Z,7.00
2023-02-24T08:48:00.726Z,6.90
2023-02-24T08:50:31.062Z,7.00
2023-02-24T08:52:58.844Z,7.10
2023-02-24T08:55:30.149Z,7.10
2023-02-24T08:58:01.523Z,7.10
2023-02-24T09:00:48.980Z,7.20
2023-02-24T09:03:27.997Z,7.30
2023-02-24T09:06:05.421Z,7.40
2023-02-24T09:08:38.433Z,7.40
2023-02-24T09:11:14.926Z,7.50
2023-02-24T09:13:58.088Z,7.70
2023-02-24T09:16:25.245Z,7.80
2023-02-24T09:19:10.572Z,7.90
2023-02-24T09:21:50.059Z,7.90
2023-02-24T09:24:27.031Z,8.00
2023-02-24T09:26:59.707Z,8.00
2023-02-24T09:29:35.544Z,8.10
2023-02-24T09:32:06.511Z,8.30
2023-02-24T09:34:43.874Z,8.40
2023-02-24T09:37:27.819Z,8.40
2023-02-24T09:39:57.793Z,8.40
2023-02-24T09:42:34.928Z,8.40
2023-02-24T09:45:11.286Z,8.40
2023-02-24T09:47:56.688Z,8.40
2023-02-24T09:51:03.206Z,8.40
2023-02-24T09:53:41.355Z,8.40
2023-02-24T09:56:24.377Z,8.40
2023-02-24T09:59:11.447Z,8.40
2023-02-24T10:01:52.604Z,8.50
2023-02-24T10:04:53.799Z,8.50
2023-02-24T10:07:20.439Z,8.50
2023-02-24T10:10:20.062Z,8.60
2023-02-24T10:12:54.530Z,8.70
2023-02-24T10:15:44.277Z,8.90
2023-02-24T10:18:39.753Z,8.90
2023-02-24T10:21:48.091Z,9.10
2023-02-24T10:24:29.281Z,9.10
2023-02-24T10:27:16.438Z,9.00
2023-02-24T10:30:16.023Z,9.00
2023-02-24T10:32:52.535Z,8.90
2023-02-24T10:35:25.759Z,8.90
2023-02-24T10:37:53.568Z,8.70
2023-02-24T10:40:27.401Z,8.60
2023-02-24T10:43:10.322Z,8.70
2023-02-24T10:45:46.957Z,8.90
2023-02-24T10:48:40.352Z,9.20
2023-02-24T10:51:11.317Z,9.20
2023-02-24T10:53:38.159Z,9.20
2023-02-24T10:56:27.155Z,9.20
2023-02-24T10:59:20.499Z,9.20
2023-02-24T11:01:59.492Z,9.30
2023-02-24T11:04:44.046Z,9.50
2023-02-24T11:07:24.308Z,9.60
2023-02-24T11:10:12.126Z,9.60
2023-02-24T11:13:09.990Z,9.50
2023-02-24T11:16:03.848Z,9.60
2023-02-24T11:18:31.827Z,9.70
2023-02-24T11:21:12.590Z,9.70
2023-02-24T11:23:44.167Z,9.60
2023-02-24T11:26:26.376Z,9.60
2023-02-24T11:29:07.482Z,9.60
2023-02-24T11:32:01.453Z,9.70
2023-02-24T11:34:49.304Z,10.00
2023-02-24T11:37:39.624Z,9.70
2023-02-24T11:40:28.373Z,9.80
2023-02-24T11:42:56.158Z,9.80
2023-02-24T11:45:25.612Z,9.80
2023-02-24T11:48:15.941Z,9.80
2023-02-24T11:50:54.715Z,9.70
2023-02-24T11:53:30.117Z,9.70
2023-02-24T11:56:43.978Z,9.50
2023-02-24T11:59:19.576Z,9.30
2023-02-24T12:02:27.648Z,9.10
2023-02-24T12:05:09.433Z,8.90
2023-02-24T12:07:48.551Z,8.80
2023-02-24T12:10:17.478Z,8.80
2023-02-24T12:13:17.585Z,8.80
2023-02-24T12:16:04.599Z,8.90
2023-02-24T12:18:39.214Z,8.80
2023-02-24T12:21:26.562Z,9.00
2023-02-24T12:23:53.600Z,9.20
2023-02-24T12:26:25.701Z,9.30
2023-02-24T12:29:15.983Z,9.40
2023-02-24T12:31:57.145Z,9.30
2023-02-24T12:34:33.530Z,9.20
2023-02-24T12:37:18.723Z,9.10
2023-02-24T12:40:31.565Z,9.00
2023-02-24T12:43:28.007Z,9.00
2023-02-24T12:46:23.270Z,9.10
2023-02-24T12:49:14.892Z,8.80
2023-02-24T12:51:47.687Z,8.80
2023-02-24T12:54:29.877Z,8.70
2023-02-24T12:57:13.905Z,8.70
2023-02-24T12:59:41.811Z,8.70
2023-02-24T13:02:14.570Z,8.60
2023-02-24T13:05:04.966Z,8.50
2023-02-24T13:08:11.852Z,8.40
2023-02-24T13:10:58.445Z,8.30
2023-02-24T13:13:40.094Z,8.40
2023-02-24T13:16:06.818Z,8.30
2023-02-24T13:18:36.649Z,8.40
2023-02-24T13:21:14.248Z,8.40
2023-02-24T13:23:42.663Z,8.40
2023-02-24T13:26:10.442Z,8.40
2023-02-24T13:28:38.457Z,8.40
2023-02-24T13:31:12.314Z,8.50
2023-02-24T13:33:41.899Z,8.40
2023-02-24T13:36:14.211Z,8.40
2023-02-24T13:38:46.468Z,8.40
2023-02-24T13:41:40.598Z,8.40
2023-02-24T13:44:19.876Z,8.30
2023-02-24T13:47:14.506Z,8.40
2023-02-24T13:49:53.199Z,8.30
2023-02-24T13:52:22.798Z,8.30
2023-02-24T13:54:58.607Z,8.40
2023-02-24T13:57:37.346Z,8.40
2023-02-24T14:00:30.093Z,8.40
2023-02-24T14:02:57.421Z,8.30
2023-02-24T14:05:29.774Z,8.30
2023-02-24T14:07:57.777Z,8.30
2023-02-24T14:10:27.591Z,8.30
2023-02-24T14:13:15.829Z,8.30
2023-02-24T14:15:45.678Z,8.30
2023-02-24T14:18:24.555Z,8.20
2023-02-24T14:20:53.011Z,8.20
2023-02-24T14:23:25.675Z,8.20
2023-02-24T14:25:59.374Z,8.20
2023-02-24T14:28:30.798Z,8.20
2023-02-24T14:31:07.642Z,8.30
2023-02-24T14:33:37.363Z,8.40
2023-02-24T14:36:08.460Z,8.50
2023-02-24T14:38:38.432Z,8.60
2023-02-24T14:41:22.992Z,8.80
2023-02-24T14:43:50.670Z,8.90
2023-02-24T14:46:18.429Z,9.00
2023-02-24T14:48:46.261Z,9.00
2023-02-24T14:51:36.967Z,9.00
2023-02-24T14:54:08.035Z,9.00
2023-02-24T14:56:36.010Z,9.10
2023-02-24T14:59:05.490Z,9.20
2023-02-24T15:01:46.529Z,9.30
2023-02-24T15:04:29.110Z,9.20
2023-02-24T15:06:55.980Z,9.20
2023-02-24T15:09:27.895Z,9.10
2023-02-24T15:11:56.085Z,9.00
2023-02-24T15:14:28.483Z,9.00
2023-02-24T15:17:02.245Z,9.20
2023-02-24T15:19:34.151Z,9.90
2023-02-24T15:22:00.919Z,10.30
2023-02-24T15:24:33.851Z,10.30
2023-02-24T15:27:02.202Z,10.10
2023-02-24T15:29:31.228Z,9.80
2023-02-24T15:32:00.722Z,9.60
2023-02-24T15:34:31.070Z,9.40
2023-02-24T15:37:03.128Z,9.50
2023-02-24T15:39:32.453Z,9.50
2023-02-24T15:42:16.017Z,9.50
2023-02-24T15:44:52.994Z,9.40
2023-02-24T15:47:29.497Z,9.40
2023-02-24T15:49:56.322Z,9.20
2023-02-24T15:52:28.697Z,9.10
2023-02-24T15:54:59.382Z,9.00
2023-02-24T15:57:27.796Z,9.00
2023-02-24T15:59:54.545Z,8.90
2023-02-24T16:02:23.388Z,8.90
2023-02-24T16:04:52.041Z,8.90
2023-02-24T16:07:28.400Z,8.90
2023-02-24T16:09:57.353Z,8.60
2023-02-24T16:12:34.935Z,8.90
2023-02-24T16:15:05.474Z,8.90
2023-02-24T16:17:40.639Z,9.00
2023-02-24T16:20:31.166Z,9.10
2023-02-24T16:22:59.707Z,9.10
2023-02-24T16:25:27.539Z,8.90
2023-02-24T16:27:57.310Z,8.70
2023-02-24T16:30:30.609Z,8.60
2023-02-24T16:32:59.035Z,8.50
2023-02-24T16:35:27.480Z,8.40
2023-02-24T16:37:54.502Z,8.40
2023-02-24T16:40:39.084Z,8.40
2023-02-24T16:43:05.898Z,8.40
2023-02-24T16:45:35.544Z,8.40
2023-02-24T16:48:06.839Z,8.40
2023-02-24T16:50:38.730Z,8.40
2023-02-24T16:53:06.941Z,8.40
2023-02-24T16:55:34.233Z,8.40
2023-02-24T16:58:01.144Z,8.30
2023-02-24T17:00:27.889Z,8.20
2023-02-24T17:02:54.799Z,8.00
2023-02-24T17:05:27.102Z,7.90
2023-02-24T17:07:55.875Z,7.80
2023-02-24T17:10:23.795Z,7.80
2023-02-24T17:12:50.668Z,7.80
2023-02-24T17:15:23.720Z,7.70
2023-02-24T17:17:50.560Z,7.70
2023-02-24T17:20:19.972Z,7.70
2023-02-24T17:22:47.368Z,7.60
2023-02-24T17:25:27.085Z,7.60
2023-02-24T17:27:54.926Z,7.60
2023-02-24T17:30:33.551Z,7.60
2023-02-24T17:33:00.970Z,7.60
2023-02-24T17:35:28.635Z,7.60
2023-02-24T17:37:55.552Z,7.60
2023-02-24T17:40:22.507Z,7.60
2023-02-24T17:42:49.307Z,7.60
2023-02-24T17:45:16.726Z,7.70
2023-02-24T17:47:43.428Z,7.70
2023-02-24T17:50:12.039Z,7.70
2023-02-24T17:52:39.259Z,7.70
2023-02-24T17:55:07.210Z,7.70
2023-02-24T17:57:35.099Z,7.70
2023-02-24T18:00:02.272Z,7.60
2023-02-24T18:02:40.044Z,7.60
2023-02-24T18:05:07.670Z,7.50
2023-02-24T18:07:34.635Z,7.40
2023-02-24T18:10:01.606Z,7.30
2023-02-24T18:12:29.361Z,7.30
2023-02-24T18:15:07.799Z,7.20
2023-02-24T18:17:38.313Z,7.10
2023-02-24T18:20:07.334Z,7.10
2023-02-24T18:22:34.592Z,7.20
2023-02-24T18:25:01.386Z,7.10
2023-02-24T18:27:28.256Z,7.10
2023-02-24T18:29:55.142Z,7.10
2023-02-24T18:32:22.202Z,7.00
2023-02-24T18:34:49.256Z,7.00
2023-02-24T18:37:16.089Z,7.00
2023-02-24T18:39:42.881Z,6.90
2023-02-24T18:42:09.911Z,7.00
2023-02-24T18:44:36.777Z,6.90
2023-02-24T18:47:09.181Z,7.00
2023-02-24T18:49:36.898Z,7.00
2023-02-24T18:52:05.247Z,7.10
2023-02-24T18:54:33.944Z,7.00
2023-02-24T18:57:01.827Z,7.20
2023-02-24T18:59:29.305Z,7.20
2023-02-24T19:01:56.839Z,7.20
2023-02-24T19:04:24.311Z,7.40
2023-02-24T19:06:51.156Z,7.30
2023-02-24T19:09:21.427Z,7.30
2023-02-24T19:11:49.488Z,7.20
2023-02-24T19:14:16.611Z,7.20
2023-02-24T19:16:43.487Z,7.20
2023-02-24T19:19:16.958Z,7.10
2023-02-24T19:21:48.314Z,7.10
2023-02-24T19:24:16.911Z,7.10
2023-02-24T19:26:45.695Z,7.10
2023-02-24T19:29:12.903Z,7.20
2023-02-24T19:31:40.581Z,7.20
2023-02-24T19:34:10.720Z,7.20
2023-02-24T19:36:38.272Z,7.00
2023-02-24T19:39:08.583Z,7.00
2023-02-24T19:41:36.752Z,6.90
2023-02-24T19:44:03.608Z,6.80
2023-02-24T19:46:34.077Z,6.80
2023-02-24T19:49:01.541Z,6.80
2023-02-24T19:51:28.860Z,6.90
2023-02-24T19:53:58.331Z,6.60
2023-02-24T19:56:27.669Z,6.90
2023-02-24T19:58:55.865Z,6.60
2023-02-24T20:01:23.904Z,6.60
2023-02-24T20:03:55.439Z,6.50
2023-02-24T20:06:32.105Z,6.50
2023-02-24T20:09:00.258Z,6.40
2023-02-24T20:11:29.679Z,6.40
2023-02-24T20:13:56.509Z,6.40
2023-02-24T20:16:25.547Z,6.40
2023-02-24T20:18:55.199Z,6.40
2023-02-24T20:21:22.087Z,6.40
2023-02-24T20:23:48.920Z,6.40
2023-02-24T20:26:16.255Z,6.40
2023-02-24T20:28:44.737Z,6.40
2023-02-24T20:31:15.381Z,6.40
2023-02-24T20:33:43.630Z,6.40
2023-02-24T20:36:22.768Z,6.50
2023-02-24T20:38:50.592Z,6.50
2023-02-24T20:41:18.319Z,6.70
2023-02-24T20:43:45.007Z,6.80
2023-02-24T20:46:24.051Z,6.80
2023-02-24T20:48:52.775Z,6.80
2023-02-24T20:51:19.649Z,6.80
2023-02-24T20:53:56.792Z,6.80
2023-02-24T20:56:27.284Z,6.90
2023-02-24T20:59:03.310Z,7.00
2023-02-24T21:01:31.813Z,7.10
2023-02-24T21:03:59.282Z,7.00
2023-02-24T21:06:26.602Z,7.10
2023-02-24T21:08:53.590Z,7.00
2023-02-24T21:11:21.541Z,7.00
2023-02-24T21:13:50.527Z,6.90
2023-02-24T21:16:18.695Z,6.90
2023-02-24T21:18:48.310Z,6.90
2023-02-24T21:21:16.069Z,6.80
2023-02-24T21:23:43.492Z,6.80
2023-02-24T21:26:12.228Z,6.70
2023-02-24T21:28:40.314Z,6.60
2023-02-24T21:31:09.796Z,6.50
2023-02-24T21:33:37.476Z,6.50
2023-02-24T21:36:06.963Z,6.40
2023-02-24T21:38:34.368Z,6.40
2023-02-24T21:41:02.382Z,6.30
2023-02-24T21:43:29.735Z,6.30
2023-02-24T21:45:59.867Z,6.20
2023-02-24T21:48:26.578Z,6.20
2023-02-24T21:51:04.040Z,6.10
2023-02-24T21:53:33.578Z,6.00
2023-02-24T21:56:17.730Z,6.00
2023-02-24T21:58:59.950Z,6.10
2023-02-24T22:01:29.567Z,6.10
2023-02-24T22:03:57.951Z,6.10
2023-02-24T22:06:31.447Z,6.20
2023-02-24T22:09:01.690Z,6.20
2023-02-24T22:11:31.579Z,6.20
2023-02-24T22:13:58.359Z,6.20
2023-02-24T22:16:26.239Z,6.20
2023-02-24T22:18:55.160Z,6.40
2023-02-24T22:21:25.469Z,6.70
2023-02-24T22:23:54.098Z,6.60
2023-02-24T22:26:23.665Z,6.70
2023-02-24T22:28:51.253Z,6.70
2023-02-24T22:31:21.358Z,6.70
2023-02-24T22:33:48.895Z,6.70
2023-02-24T22:36:18.904Z,6.70
2023-02-24T22:38:46.549Z,6.70
2023-02-24T22:41:16.481Z,6.60
2023-02-24T22:43:43.951Z,6.50
2023-02-24T22:46:16.363Z,6.50
2023-02-24T22:48:43.708Z,6.50
2023-02-24T22:51:12.984Z,6.50
2023-02-24T22:53:43.052Z,6.50
2023-02-24T22:56:14.264Z,6.60
2023-02-24T22:58:41.468Z,6.60
2023-02-24T23:01:10.237Z,6.60
2023-02-24T23:03:37.673Z,6.60
2023-02-24T23:06:07.686Z,6.60
2023-02-24T23:08:37.552Z,6.50
2023-02-24T23:11:12.157Z,6.50
2023-02-24T23:13:40.991Z,6.50
2023-02-24T23:16:11.072Z,6.50
2023-02-24T23:18:38.205Z,6.40
2023-02-24T23:21:08.050Z,6.40
2023-02-24T23:23:36.643Z,6.30
2023-02-24T23:26:04.652Z,6.20
2023-02-24T23:28:31.472Z,6.20
2023-02-24T23:30:58.236Z,6.20
2023-02-24T23:33:25.611Z,6.10
2023-02-24T23:35:52.370Z,6.10
2023-02-24T23:38:19.187Z,6.10
2023-02-24T23:40:50.836Z,6.00
2023-02-24T23:43:17.908Z,6.00
2023-02-24T23:45:45.047Z,6.00
2023-02-24T23:48:13.890Z,5.90
2023-02-24T23:50:42.323Z,5.90
2023-02-24T23:53:09.467Z,5.90
2023-02-24T23:55:39.986Z,5.90
2023-02-24T23:58:07.253Z,5.80
